Gran Canaria > ESTACION METEOROLÓGICA Las Palmas de Gran Canaria, San Cristobal

DATOS ACTUALES Online

Ultima actulizacion 50 minutos

20.6 ºC

Temperatura

69

Humedad (%)

Presión (mb)

0

Precipitación (mm)

2.8 NW

Viento (Km/h)

DATOS DIARIOS

Temperatura últimas 24 horas (ºC)

Humedad últimas 24 horas (%)

Presión atmosférica últimas 24 horas (mb)

Precipitaciones últimas 23 horas (mm)

Viento últimas 24 horas (Km/h)

Hora Temperatura (°C) ºC Precipitación (mm) mm Presión (mb) mb Humedad (%) % Viento (Km/h) km/h
28 - 23:00
29 - 00:00 19.8 0 0 72 4.1 NW
29 - 01:00 19.7 0 0 72 3 NW
29 - 02:00 19.8 0 0 71 3.6 NW
29 - 03:00 19.8 0 0 69 3.8 NW
29 - 04:00 19.8 0 0 72 3.4 NW
29 - 05:00 19.5 0 0 72 3.4 NW
29 - 06:00 19.5 0 0 72 2.8 NW
29 - 07:00 19.6 0 0 72 1.6 NW
29 - 08:00 20 0 0 69 1 N
29 - 09:00 20.9 0 0 68 0.5 O
29 - 10:00 22 0 0 63 1.4 NO
29 - 11:00
29 - 12:00 22.3 0 0 58 4.7 N
29 - 13:00 21.5 0 0 58 3.8 NW
29 - 14:00 22.3 0 0 58 4 NW
29 - 15:00 21.3 0 0 63 4.5 NW
29 - 16:00 20.9 0 0 67 4.8 NW
29 - 17:00 21.1 0 0 64 3.8 NW
29 - 18:00 21.2 0 0 62 3.6 NW
29 - 19:00 21.2 0 0 62 3.7 NW
29 - 20:00 21.3 0 0 65 3.2 W
29 - 21:00 20.7 0 0 66 4.5 NW
29 - 22:00 20.5 0 0 67 3.2 NW
29 - 23:00 20.6 0 0 69 2.8 NW
Apalmet utiliza cookies propias y de terceros para mejorar la usabilidad y la experiencia web. Política de cookies.